Merced, CA (95340)

2:13 AM PDT on October 25, 2014 (GMT -0700)
Northeast Merced | Change Station
CLOSE
Current Station
Personal Weather Station
Location: Merced, CA
Elevation: 154 ft
Nearby Weather Stations

Elev 154 ft 37.32 °N, 120.45 °W | Updated 10 seconds ago

Clear
Clear
58.0 °F
Feels Like 58.0 °F
N
0.4
Wind Variable Wind from NNW
Gusts 1.6 mph

Today
High -- | Low -- °F
--% Chance of Precip.
Yesterday
High -- | Low -- °F
Precip. -- in
7:19 AM 6:11 PM
New Moon, 2% visible
Pressure 29.95 in
Visibility 10.0 miles
Clouds Clear
Dew Point 52 °F
Humidity 79%
Rainfall 0.00 in
Snow Depth Not available.
UV 0 out of 12
Pollen 2.30 out of 12
Air Quality Not available.
Flu Activity Sporadic
METAR KMCE 250853Z AUTO 34004KT 10SM CLR 14/11 A2995 RMK AO2 SLP140 T01440106 53009

More Conditions Fewer Conditions

Pressure 29.95 in
Visibility 10.0 miles
Clouds Clear
Dew Point 52 °F
Humidity 79%
Rainfall 0.00 in
Snow Depth Not available.
UV 0 out of 12
Pollen 2.30 out of 12
Air Quality Not available.
Flu Activity Sporadic
METAR KMCE 250853Z AUTO 34004KT 10SM CLR 14/11 A2995 RMK AO2 SLP140 T01440106 53009

More Conditions Fewer Conditions

10-Day Weather Forecast

Almanac

Astronomy

Oct. 25, 2014 Rise Set
Actual Time 7:19 AM PDT 6:11 PM PDT
Civil Twilight 6:52 AM PDT 6:38 PM PDT
Nautical Twilight 6:22 AM PDT 7:08 PM PDT
Astronomical Twilight 5:52 AM PDT 7:39 PM PDT
Moon 9:01 AM PDT 7:40 PM PDT
Length of Visible Light 11h 45m
Length of Day
10h 52m
Tomorrow will be 2m 11s shorter.
New Moon, 2% of the Moon is Illuminated
Today
New Moon
Oct 30
First Quarter
Nov 6
Full
Nov 14
Last Quarter
Nov 22
New

Today's Extremes

State Highs State Lows

Community

WunderPhotos

Upload Photos

1,764,796 photos uploaded!

Nearby

Air Quality

  Air Quality AQ Index Pollutant
Saturday Moderate
PM10
Sunday Good
PM10
Monday Good
PM10
Tuesday Moderate
PM10
Wednesday Moderate
PM10

Snow Depth

Station Depth Elevation
Leavitt Lake 1 in 9400 ft
Sonora Pass 0 in 8800 ft
Virginia Lakes Ridge 0 in 9200 ft
Leavitt Meadows 0 in 7200 ft
Summit Meadow 1 in 9122 ft

Earthquake Activity

City Distance Mag. Time & Date
Coalinga, California 92 miles 2.5 11:01 PM PDT
2014-10-24
Kettleman City, California 106 miles 2.5 9:08 AM PDT
2014-10-22
Minimum magnitude displayed is 2.5.

Coastal Water Temperatures

Place Temperature
No Stations Reporting

Nearby Weather Stations